Time;durP1;ratioP1;P1;durP2;ratioP2;P2;SDS_P1;SDS_P2;PMS_P1;PMS_P2;Temp;Humidity;BMP_temperature;BMP_pressure;BME280_temperature;BME280_humidity;BME280_pressure;Samples;Min_cycle;Max_cycle;Signal;HPM_P1;HPM_P2
2021/09/20 00:01:36;;;;;;;1.73;0.50;;;;;;;;;;5046097;28;20036;-57
2021/09/20 00:04:02;;;;;;;1.58;0.47;;;;;;;;;;5047684;28;20167;-58
2021/09/20 00:06:28;;;;;;;7.15;0.60;;;;;;;;;;5036709;28;20069;-57
2021/09/20 00:08:54;;;;;;;1.63;0.50;;;;;;;;;;5048897;28;20041;-57
2021/09/20 00:11:20;;;;;;;1.27;0.40;;;;;;;;;;5048228;28;20041;-58
2021/09/20 00:13:45;;;;;;;2.55;0.70;;;;;;;;;;5052034;28;20041;-58
2021/09/20 00:16:11;;;;;;;2.17;0.50;;;;;;;;;;5049716;28;20107;-57
2021/09/20 00:18:37;;;;;;;2.13;0.60;;;;;;;;;;5049230;28;20044;-56
2021/09/20 00:21:04;;;;;;;2.35;0.60;;;;;;;;;;5046357;28;20390;-58
2021/09/20 00:23:30;;;;;;;2.30;0.60;;;;;;;;;;5026500;28;20390;-58
2021/09/20 00:25:58;;;;;;;3.47;0.52;;;;;;;;;;5047881;28;20044;-57
2021/09/20 00:28:24;;;;;;;1.17;0.45;;;;;;;;;;5046569;28;20113;-57
2021/09/20 00:30:50;;;;;;;3.28;0.55;;;;;;;;;;5047298;28;20053;-56
2021/09/20 00:33:16;;;;;;;2.00;0.40;;;;;;;;;;5048914;28;20041;-57
2021/09/20 00:35:42;;;;;;;1.92;0.50;;;;;;;;;;5047571;28;20128;-57
2021/09/20 00:38:08;;;;;;;4.95;0.57;;;;;;;;;;5047764;28;20041;-57
2021/09/20 00:40:34;;;;;;;1.98;0.60;;;;;;;;;;5027019;28;20035;-57
2021/09/20 00:43:00;;;;;;;1.80;0.55;;;;;;;;;;5045941;28;22385;-57
2021/09/20 00:45:26;;;;;;;2.00;0.57;;;;;;;;;;5029592;28;20052;-57
2021/09/20 00:47:51;;;;;;;2.67;0.68;;;;;;;;;;5046400;28;20573;-57
2021/09/20 00:50:18;;;;;;;4.82;0.90;;;;;;;;;;5046133;28;20102;-56
2021/09/20 00:52:43;;;;;;;3.58;1.40;;;;;;;;;;5048059;28;20045;-57
2021/09/20 00:55:10;;;;;;;1.77;0.55;;;;;;;;;;5049109;28;20638;-58
2021/09/20 00:57:35;;;;;;;3.30;0.73;;;;;;;;;;5029483;28;20060;-58
2021/09/20 01:00:02;;;;;;;6.28;0.90;;;;;;;;;;5047964;28;20476;-57
2021/09/20 01:02:28;;;;;;;1.63;0.50;;;;;;;;;;5045203;28;20047;-58
2021/09/20 01:04:53;;;;;;;3.15;0.60;;;;;;;;;;5047473;28;20041;-57
2021/09/20 01:07:19;;;;;;;1.20;0.40;;;;;;;;;;5047040;28;20481;-58
2021/09/20 01:09:45;;;;;;;2.50;0.70;;;;;;;;;;5027756;28;20391;-58
2021/09/20 01:12:12;;;;;;;3.00;0.60;;;;;;;;;;5046497;28;20045;-58
2021/09/20 01:14:38;;;;;;;2.42;0.60;;;;;;;;;;5048080;28;20053;-57
2021/09/20 01:17:04;;;;;;;2.40;0.60;;;;;;;;;;5046345;28;20158;-57
2021/09/20 01:19:30;;;;;;;2.53;0.70;;;;;;;;;;5047078;28;20037;-57
2021/09/20 01:22:00;;;;;;;2.90;1.10;;;;;;;;;;5046366;28;20086;-58
2021/09/20 01:24:26;;;;;;;3.05;0.73;;;;;;;;;;5047402;28;20048;-57
2021/09/20 01:26:55;;;;;;;3.17;0.63;;;;;;;;;;5045488;28;20040;-57
2021/09/20 01:29:23;;;;;;;2.90;0.73;;;;;;;;;;5045307;28;20040;-56
2021/09/20 01:31:49;;;;;;;2.95;0.50;;;;;;;;;;5045847;28;20120;-58
2021/09/20 01:34:15;;;;;;;6.07;0.75;;;;;;;;;;5047646;28;20047;-58
2021/09/20 01:36:40;;;;;;;5.38;0.93;;;;;;;;;;5045965;28;20082;-57
2021/09/20 01:39:14;;;;;;;1.58;0.60;;;;;;;;;;5048208;28;20041;-56
2021/09/20 01:41:40;;;;;;;4.55;0.90;;;;;;;;;;5044539;28;20045;-56
2021/09/20 01:44:06;;;;;;;2.45;0.90;;;;;;;;;;5047203;28;20114;-56
2021/09/20 01:46:32;;;;;;;3.38;0.68;;;;;;;;;;5043369;28;20128;-56
2021/09/20 01:48:59;;;;;;;1.80;0.60;;;;;;;;;;5047380;28;20067;-56
2021/09/20 01:51:25;;;;;;;2.05;0.80;;;;;;;;;;5046823;28;20056;-56
2021/09/20 01:53:51;;;;;;;5.10;0.93;;;;;;;;;;5050367;28;20040;-57
2021/09/20 01:56:16;;;;;;;3.72;0.63;;;;;;;;;;5048960;28;20041;-56
2021/09/20 01:58:42;;;;;;;3.50;0.68;;;;;;;;;;5049477;28;20978;-56
2021/09/20 02:01:08;;;;;;;1.75;0.60;;;;;;;;;;5047284;28;20029;-56
2021/09/20 02:03:34;;;;;;;2.42;0.60;;;;;;;;;;5048309;28;20035;-56
2021/09/20 02:06:00;;;;;;;2.95;0.65;;;;;;;;;;5049138;28;20040;-56
2021/09/20 02:08:25;;;;;;;2.20;0.70;;;;;;;;;;5050598;28;20036;-54
2021/09/20 02:10:51;;;;;;;2.90;0.55;;;;;;;;;;5050835;28;20078;-56
2021/09/20 02:13:17;;;;;;;6.50;0.85;;;;;;;;;;5050797;28;20463;-57
2021/09/20 02:15:43;;;;;;;4.85;1.00;;;;;;;;;;5052405;28;20040;-57
2021/09/20 02:18:08;;;;;;;2.78;0.90;;;;;;;;;;5049919;28;20036;-56
2021/09/20 02:20:34;;;;;;;2.20;0.65;;;;;;;;;;5048290;28;20043;-57
2021/09/20 02:23:00;;;;;;;2.45;0.60;;;;;;;;;;5050804;28;20075;-57
2021/09/20 02:25:26;;;;;;;2.42;0.70;;;;;;;;;;5051091;28;20408;-57
2021/09/20 02:27:52;;;;;;;4.35;0.68;;;;;;;;;;5049680;28;20580;-56
2021/09/20 02:30:18;;;;;;;2.60;0.50;;;;;;;;;;5049980;28;20139;-56
2021/09/20 02:32:44;;;;;;;2.40;0.63;;;;;;;;;;5051262;28;20048;-55
2021/09/20 02:35:10;;;;;;;1.38;0.63;;;;;;;;;;5050311;28;20071;-56
2021/09/20 02:37:36;;;;;;;2.38;0.57;;;;;;;;;;5049551;28;20036;-55
2021/09/20 02:40:03;;;;;;;2.38;0.60;;;;;;;;;;5050936;28;20032;-54
2021/09/20 02:42:29;;;;;;;1.00;0.40;;;;;;;;;;5038947;28;20083;-56
2021/09/20 02:44:54;;;;;;;1.60;0.45;;;;;;;;;;5033145;28;20041;-56
2021/09/20 02:47:20;;;;;;;1.63;0.50;;;;;;;;;;5031796;28;20044;-56
2021/09/20 02:49:46;;;;;;;1.02;0.50;;;;;;;;;;5031735;28;20124;-55
2021/09/20 02:52:12;;;;;;;1.40;0.45;;;;;;;;;;5034880;28;20378;-56
2021/09/20 02:54:38;;;;;;;1.63;0.50;;;;;;;;;;5032705;28;20541;-57
2021/09/20 02:57:04;;;;;;;2.10;0.60;;;;;;;;;;5034048;28;20040;-56
2021/09/20 02:59:29;;;;;;;2.15;0.70;;;;;;;;;;5030273;28;20033;-56
2021/09/20 03:01:55;;;;;;;1.95;0.52;;;;;;;;;;5030028;28;20421;-55
2021/09/20 03:04:21;;;;;;;3.67;0.65;;;;;;;;;;5031862;28;20045;-56
2021/09/20 03:06:47;;;;;;;2.10;0.60;;;;;;;;;;5032754;28;20057;-57
2021/09/20 03:09:12;;;;;;;4.55;0.80;;;;;;;;;;5032817;28;20076;-56
2021/09/20 03:11:38;;;;;;;2.47;0.80;;;;;;;;;;5031088;28;20123;-56
2021/09/20 03:14:04;;;;;;;7.72;0.85;;;;;;;;;;5034255;28;20044;-56
2021/09/20 03:16:30;;;;;;;6.13;1.45;;;;;;;;;;5032098;28;20098;-56
2021/09/20 03:18:56;;;;;;;3.78;1.02;;;;;;;;;;5032492;28;20044;-56
2021/09/20 03:21:24;;;;;;;2.72;0.70;;;;;;;;;;5032359;28;20231;-56
2021/09/20 03:23:50;;;;;;;2.70;0.90;;;;;;;;;;5030631;28;20045;-56
2021/09/20 03:26:16;;;;;;;2.75;0.80;;;;;;;;;;5032502;28;20034;-56
2021/09/20 03:28:42;;;;;;;8.60;0.90;;;;;;;;;;5031665;28;20044;-56
2021/09/20 03:31:07;;;;;;;2.45;0.70;;;;;;;;;;5032564;28;20041;-56
2021/09/20 03:33:33;;;;;;;4.53;0.80;;;;;;;;;;5032407;28;20128;-56
2021/09/20 03:35:59;;;;;;;4.10;0.90;;;;;;;;;;5033849;28;20059;-55
2021/09/20 03:38:25;;;;;;;10.57;1.23;;;;;;;;;;5016903;28;20501;-57
2021/09/20 03:40:51;;;;;;;3.25;1.00;;;;;;;;;;5030636;28;20040;-57
2021/09/20 03:43:17;;;;;;;7.22;0.85;;;;;;;;;;5046488;28;20040;-55
2021/09/20 03:45:42;;;;;;;2.78;0.70;;;;;;;;;;5048022;28;20045;-56
2021/09/20 03:48:10;;;;;;;3.95;0.80;;;;;;;;;;5048067;28;20063;-57
2021/09/20 03:50:36;;;;;;;3.80;0.85;;;;;;;;;;5049046;28;20051;-56
2021/09/20 03:53:02;;;;;;;2.97;0.80;;;;;;;;;;5049450;28;20094;-56
2021/09/20 03:55:28;;;;;;;5.53;1.17;;;;;;;;;;5047530;28;20043;-55
2021/09/20 03:57:53;;;;;;;1.98;0.75;;;;;;;;;;5048945;28;20050;-54
2021/09/20 04:00:19;;;;;;;5.65;0.80;;;;;;;;;;5047758;28;20072;-55
2021/09/20 04:02:45;;;;;;;4.18;0.98;;;;;;;;;;5047545;28;20465;-53
2021/09/20 04:05:11;;;;;;;2.15;0.65;;;;;;;;;;5027625;28;20040;-55
2021/09/20 04:07:41;;;;;;;2.67;0.82;;;;;;;;;;5047803;28;20128;-55
2021/09/20 04:10:07;;;;;;;3.53;0.93;;;;;;;;;;5047895;28;20519;-55
2021/09/20 04:12:33;;;;;;;5.88;0.80;;;;;;;;;;5046238;28;20398;-54
2021/09/20 04:14:59;;;;;;;3.58;0.80;;;;;;;;;;5045753;28;20150;-56
2021/09/20 04:17:25;;;;;;;3.72;0.90;;;;;;;;;;5048501;28;20041;-56
2021/09/20 04:19:50;;;;;;;3.92;0.93;;;;;;;;;;5034228;28;20048;-55
2021/09/20 04:22:16;;;;;;;6.57;1.50;;;;;;;;;;5049875;28;20043;-56
2021/09/20 04:24:42;;;;;;;3.38;1.02;;;;;;;;;;5046511;28;20350;-55
2021/09/20 04:27:08;;;;;;;3.22;0.77;;;;;;;;;;5048297;28;20039;-56
2021/09/20 04:29:33;;;;;;;3.05;1.02;;;;;;;;;;5046209;28;20040;-55
2021/09/20 04:31:59;;;;;;;5.05;0.95;;;;;;;;;;5028779;28;20033;-53
2021/09/20 04:34:25;;;;;;;3.05;0.90;;;;;;;;;;5046520;28;20044;-55
2021/09/20 04:36:51;;;;;;;7.03;1.20;;;;;;;;;;5049038;28;20122;-54
2021/09/20 04:39:17;;;;;;;4.63;1.00;;;;;;;;;;5046742;28;20041;-55
2021/09/20 04:41:43;;;;;;;5.95;0.90;;;;;;;;;;5048100;28;20053;-56
2021/09/20 04:44:09;;;;;;;2.63;0.80;;;;;;;;;;5048773;28;20033;-55
2021/09/20 04:46:35;;;;;;;5.32;0.88;;;;;;;;;;5046814;28;20107;-56
2021/09/20 04:49:01;;;;;;;4.10;0.80;;;;;;;;;;5029804;28;20048;-57
2021/09/20 04:51:27;;;;;;;3.42;0.77;;;;;;;;;;5025510;28;20095;-55
2021/09/20 04:53:52;;;;;;;6.13;1.10;;;;;;;;;;5048057;28;20132;-55
2021/09/20 04:56:18;;;;;;;10.82;1.20;;;;;;;;;;5036782;28;20704;-56
2021/09/20 04:58:44;;;;;;;7.97;1.27;;;;;;;;;;5046112;28;20044;-55
2021/09/20 05:01:10;;;;;;;3.67;1.00;;;;;;;;;;5047782;28;20036;-55
2021/09/20 05:03:36;;;;;;;7.55;1.17;;;;;;;;;;5047044;28;20373;-55
2021/09/20 05:06:01;;;;;;;6.03;0.90;;;;;;;;;;5046539;28;20040;-55
2021/09/20 05:08:27;;;;;;;4.80;1.00;;;;;;;;;;5045482;28;20802;-54
2021/09/20 05:10:53;;;;;;;2.15;0.70;;;;;;;;;;5046441;28;20087;-56
2021/09/20 05:13:19;;;;;;;2.15;0.60;;;;;;;;;;5048821;28;20086;-54
2021/09/20 05:15:45;;;;;;;2.03;0.60;;;;;;;;;;5048106;28;20040;-56
2021/09/20 05:18:14;;;;;;;3.70;0.80;;;;;;;;;;5047781;28;20037;-55
2021/09/20 05:20:40;;;;;;;3.28;0.77;;;;;;;;;;5044607;28;20032;-55
2021/09/20 05:23:06;;;;;;;3.05;0.50;;;;;;;;;;5048817;28;20051;-56
2021/09/20 05:25:32;;;;;;;2.80;0.85;;;;;;;;;;5048429;28;20398;-56
2021/09/20 05:27:58;;;;;;;3.05;0.80;;;;;;;;;;5052511;28;20580;-56
2021/09/20 05:30:23;;;;;;;5.03;0.95;;;;;;;;;;5049084;28;20064;-55
2021/09/20 05:32:49;;;;;;;2.90;0.80;;;;;;;;;;5053791;28;20454;-56
2021/09/20 05:35:15;;;;;;;3.40;0.73;;;;;;;;;;5051069;28;20037;-54
2021/09/20 05:37:42;;;;;;;4.10;0.73;;;;;;;;;;5050629;28;20071;-53
2021/09/20 05:40:09;;;;;;;5.38;0.82;;;;;;;;;;5049962;28;20031;-56
2021/09/20 05:42:35;;;;;;;4.38;0.88;;;;;;;;;;5048531;28;20053;-56
2021/09/20 05:45:02;;;;;;;2.33;0.82;;;;;;;;;;5032581;28;20071;-56
2021/09/20 05:47:28;;;;;;;3.17;0.80;;;;;;;;;;5050609;28;20112;-54
2021/09/20 05:49:54;;;;;;;3.78;0.82;;;;;;;;;;5053464;28;20040;-56
2021/09/20 05:52:22;;;;;;;3.17;1.00;;;;;;;;;;5049342;28;20214;-56
2021/09/20 05:54:48;;;;;;;2.40;0.70;;;;;;;;;;5048868;28;20163;-55
2021/09/20 05:57:13;;;;;;;2.70;0.80;;;;;;;;;;5031587;28;20089;-55
2021/09/20 05:59:40;;;;;;;4.78;0.60;;;;;;;;;;5050814;28;20044;-56
2021/09/20 06:02:06;;;;;;;3.53;0.95;;;;;;;;;;5050652;28;20075;-56
2021/09/20 06:04:32;;;;;;;4.88;0.98;;;;;;;;;;5049727;28;20212;-55
2021/09/20 06:06:58;;;;;;;3.42;1.05;;;;;;;;;;5050502;28;20039;-55
2021/09/20 06:09:24;;;;;;;4.35;1.00;;;;;;;;;;5048672;28;21995;-56
2021/09/20 06:11:49;;;;;;;4.88;1.00;;;;;;;;;;5050269;28;20796;-56
2021/09/20 06:14:15;;;;;;;3.58;1.02;;;;;;;;;;5050675;28;20047;-56
2021/09/20 06:16:41;;;;;;;4.97;1.13;;;;;;;;;;5049171;28;20041;-55
2021/09/20 06:19:07;;;;;;;11.50;1.27;;;;;;;;;;5049774;28;20037;-55
2021/09/20 06:21:33;;;;;;;2.47;0.95;;;;;;;;;;5049154;28;20095;-54
2021/09/20 06:23:59;;;;;;;6.07;1.15;;;;;;;;;;5049136;28;20530;-56
2021/09/20 06:26:25;;;;;;;6.07;1.17;;;;;;;;;;5047994;28;20040;-56
2021/09/20 06:28:51;;;;;;;8.32;0.90;;;;;;;;;;5048171;28;20516;-55
2021/09/20 06:31:17;;;;;;;6.50;1.50;;;;;;;;;;5047118;28;20045;-55
2021/09/20 06:33:43;;;;;;;9.73;1.27;;;;;;;;;;5051107;28;20041;-55
2021/09/20 06:36:09;;;;;;;9.40;1.33;;;;;;;;;;5050002;28;20048;-56
2021/09/20 06:38:35;;;;;;;3.42;0.80;;;;;;;;;;5047534;28;20033;-55
2021/09/20 06:41:00;;;;;;;9.98;1.33;;;;;;;;;;5048392;28;20409;-55
2021/09/20 06:43:26;;;;;;;3.95;1.20;;;;;;;;;;5049116;28;20086;-56
2021/09/20 06:45:52;;;;;;;4.60;1.08;;;;;;;;;;5050487;28;20116;-55
2021/09/20 06:48:18;;;;;;;6.15;1.02;;;;;;;;;;5048736;28;20489;-55
2021/09/20 06:50:44;;;;;;;3.80;0.98;;;;;;;;;;5047994;28;20060;-55
2021/09/20 06:53:10;;;;;;;5.82;0.98;;;;;;;;;;5051471;28;20076;-54
2021/09/20 06:55:36;;;;;;;5.88;1.00;;;;;;;;;;5049261;28;20120;-55
2021/09/20 06:58:02;;;;;;;6.30;0.85;;;;;;;;;;5049366;28;20040;-55
2021/09/20 07:00:28;;;;;;;2.45;0.70;;;;;;;;;;5048149;28;20033;-55
2021/09/20 07:02:55;;;;;;;2.95;0.70;;;;;;;;;;5047494;28;20210;-56
2021/09/20 07:05:21;;;;;;;8.95;0.70;;;;;;;;;;5048312;28;20029;-55
2021/09/20 07:07:47;;;;;;;3.22;0.77;;;;;;;;;;5049649;28;20069;-54
2021/09/20 07:10:14;;;;;;;2.47;0.80;;;;;;;;;;5049828;28;20174;-56
2021/09/20 07:12:41;;;;;;;6.43;1.45;;;;;;;;;;5048261;28;20052;-55
2021/09/20 07:15:08;;;;;;;4.10;1.10;;;;;;;;;;5032699;28;20485;-56
2021/09/20 07:17:34;;;;;;;5.00;0.90;;;;;;;;;;5048021;28;20164;-55
2021/09/20 07:20:00;;;;;;;8.80;0.95;;;;;;;;;;5049789;28;20553;-55
2021/09/20 07:22:25;;;;;;;2.97;0.85;;;;;;;;;;5049519;28;20096;-56
2021/09/20 07:24:51;;;;;;;3.72;0.80;;;;;;;;;;5047617;28;20046;-55
2021/09/20 07:27:17;;;;;;;2.67;0.70;;;;;;;;;;5048730;28;20036;-52
2021/09/20 07:29:43;;;;;;;4.70;1.13;;;;;;;;;;5049463;28;20460;-55
2021/09/20 07:32:09;;;;;;;5.72;0.75;;;;;;;;;;5048471;28;20037;-55
2021/09/20 07:34:35;;;;;;;4.40;0.85;;;;;;;;;;5048116;28;20094;-53
2021/09/20 07:37:01;;;;;;;3.13;1.10;;;;;;;;;;5047563;28;20040;-52
2021/09/20 07:39:27;;;;;;;2.83;1.00;;;;;;;;;;5047413;28;20043;-55
2021/09/20 07:41:53;;;;;;;4.72;0.90;;;;;;;;;;5048621;28;20055;-56
2021/09/20 07:44:19;;;;;;;3.08;0.80;;;;;;;;;;5048097;28;20477;-56
2021/09/20 07:46:44;;;;;;;3.30;1.00;;;;;;;;;;5031689;28;20044;-54
2021/09/20 07:49:11;;;;;;;7.35;1.02;;;;;;;;;;5048186;28;20036;-55
2021/09/20 07:51:36;;;;;;;7.15;1.00;;;;;;;;;;5031095;28;20055;-56
2021/09/20 07:54:02;;;;;;;3.00;0.88;;;;;;;;;;5049000;28;20034;-56
2021/09/20 07:56:31;;;;;;;4.53;0.88;;;;;;;;;;5047491;28;20041;-54
2021/09/20 07:58:58;;;;;;;6.95;1.10;;;;;;;;;;5048491;28;20045;-54
2021/09/20 08:01:24;;;;;;;2.75;0.90;;;;;;;;;;5047219;28;20040;-55
2021/09/20 08:03:50;;;;;;;7.97;1.10;;;;;;;;;;5031582;28;20706;-55
2021/09/20 08:06:17;;;;;;;3.13;1.00;;;;;;;;;;5047073;28;20044;-56
2021/09/20 08:08:44;;;;;;;9.93;1.38;;;;;;;;;;5048008;28;20497;-55
2021/09/20 08:11:10;;;;;;;6.93;1.15;;;;;;;;;;5047065;28;20083;-56
2021/09/20 08:13:36;;;;;;;4.47;0.93;;;;;;;;;;5047552;28;20041;-55
2021/09/20 08:16:01;;;;;;;3.20;1.23;;;;;;;;;;5048979;28;20086;-56
2021/09/20 08:18:27;;;;;;;4.70;1.38;;;;;;;;;;5046978;28;20067;-56
2021/09/20 08:20:53;;;;;;;3.28;1.00;;;;;;;;;;5050089;28;20056;-56
2021/09/20 08:23:20;;;;;;;3.00;0.90;;;;;;;;;;5051035;28;20102;-56
2021/09/20 08:25:46;;;;;;;7.63;1.30;;;;;;;;;;5049422;28;20063;-56
2021/09/20 08:28:12;;;;;;;4.50;1.20;;;;;;;;;;5051287;28;20493;-56
2021/09/20 08:30:38;;;;;;;7.10;1.13;;;;;;;;;;5047877;28;20045;-56
2021/09/20 08:33:04;;;;;;;3.40;1.23;;;;;;;;;;5049195;28;20025;-56
2021/09/20 08:35:30;;;;;;;3.67;1.23;;;;;;;;;;5047222;28;20055;-57
2021/09/20 08:37:56;;;;;;;5.35;1.30;;;;;;;;;;5049754;28;20104;-57
2021/09/20 08:40:22;;;;;;;4.20;1.17;;;;;;;;;;5048038;28;20512;-56
2021/09/20 08:42:48;;;;;;;3.22;0.95;;;;;;;;;;5051554;28;20140;-56
2021/09/20 08:45:16;;;;;;;3.20;0.90;;;;;;;;;;5049604;28;20205;-56
2021/09/20 08:47:45;;;;;;;4.35;1.17;;;;;;;;;;5050227;28;20033;-56
2021/09/20 08:50:11;;;;;;;4.15;1.17;;;;;;;;;;5050725;28;20059;-57
2021/09/20 08:52:38;;;;;;;3.10;1.10;;;;;;;;;;5048122;28;20037;-56
2021/09/20 08:55:04;;;;;;;8.23;1.10;;;;;;;;;;5049600;28;20068;-56
2021/09/20 08:57:30;;;;;;;6.72;1.10;;;;;;;;;;5048230;28;20044;-56
2021/09/20 08:59:55;;;;;;;9.73;1.20;;;;;;;;;;5048446;28;20041;-56
2021/09/20 09:02:21;;;;;;;2.78;0.90;;;;;;;;;;5052381;28;20045;-56
2021/09/20 09:04:47;;;;;;;3.45;1.02;;;;;;;;;;5053289;28;20041;-57
2021/09/20 09:07:15;;;;;;;2.20;0.82;;;;;;;;;;5053012;28;20120;-57
2021/09/20 09:09:43;;;;;;;3.00;0.90;;;;;;;;;;5052689;28;20064;-57
2021/09/20 09:12:14;;;;;;;2.53;0.90;;;;;;;;;;5051559;28;20048;-57
2021/09/20 09:14:41;;;;;;;3.15;0.95;;;;;;;;;;5051355;28;20041;-54
2021/09/20 09:17:15;;;;;;;9.00;0.98;;;;;;;;;;5034108;28;20098;-53
2021/09/20 09:19:42;;;;;;;8.55;1.10;;;;;;;;;;5051436;28;20040;-55
2021/09/20 09:22:07;;;;;;;3.80;0.98;;;;;;;;;;5053511;28;20045;-56
2021/09/20 09:24:33;;;;;;;9.82;1.10;;;;;;;;;;5032083;28;20505;-55
2021/09/20 09:27:00;;;;;;;3.30;1.05;;;;;;;;;;5051148;28;20425;-55
2021/09/20 09:29:30;;;;;;;2.78;0.90;;;;;;;;;;5030909;28;20765;-54
2021/09/20 09:31:58;;;;;;;2.80;0.90;;;;;;;;;;5051696;28;20181;-55
2021/09/20 09:34:25;;;;;;;2.70;0.77;;;;;;;;;;5051662;28;22166;-56
2021/09/20 09:36:51;;;;;;;2.80;0.90;;;;;;;;;;5049959;28;20045;-55
2021/09/20 09:39:27;;;;;;;2.10;0.70;;;;;;;;;;5052182;28;20098;-53
2021/09/20 09:41:53;;;;;;;2.65;0.85;;;;;;;;;;5050029;28;20098;-55
2021/09/20 09:44:25;;;;;;;3.08;1.05;;;;;;;;;;5049633;28;20037;-55
2021/09/20 09:46:51;;;;;;;3.72;1.00;;;;;;;;;;5032147;28;20039;-55
2021/09/20 09:49:18;;;;;;;5.57;1.10;;;;;;;;;;5050946;28;20036;-55
2021/09/20 09:51:54;;;;;;;3.03;0.98;;;;;;;;;;5050212;28;20941;-55
2021/09/20 09:54:32;;;;;;;2.83;0.82;;;;;;;;;;5050057;28;20040;-54
2021/09/20 09:57:12;;;;;;;4.05;1.27;;;;;;;;;;5049219;28;22757;-52
2021/09/20 09:59:38;;;;;;;3.05;1.17;;;;;;;;;;5049157;28;20079;-55
2021/09/20 10:02:27;;;;;;;3.08;1.10;;;;;;;;;;5049217;28;20139;-56
2021/09/20 10:04:52;;;;;;;4.50;1.08;;;;;;;;;;5048143;28;20078;-53
2021/09/20 10:07:37;;;;;;;6.30;1.35;;;;;;;;;;5048764;28;20124;-55
2021/09/20 10:10:08;;;;;;;2.97;1.10;;;;;;;;;;5051184;28;20056;-55
2021/09/20 10:12:35;;;;;;;7.97;1.30;;;;;;;;;;5049744;28;20048;-55
2021/09/20 10:15:01;;;;;;;5.50;1.00;;;;;;;;;;5050225;28;20385;-54
2021/09/20 10:17:28;;;;;;;8.55;1.50;;;;;;;;;;5049466;28;20680;-55
2021/09/20 10:19:54;;;;;;;3.50;1.30;;;;;;;;;;5049230;28;20075;-55
2021/09/20 10:22:20;;;;;;;3.10;1.10;;;;;;;;;;5050165;28;20037;-54
2021/09/20 10:24:49;;;;;;;4.55;1.35;;;;;;;;;;5050216;28;20040;-55
2021/09/20 10:27:16;;;;;;;5.00;1.20;;;;;;;;;;5050200;28;20041;-57
2021/09/20 10:29:44;;;;;;;3.50;1.27;;;;;;;;;;5049505;28;20040;-56
2021/09/20 10:32:10;;;;;;;6.22;1.17;;;;;;;;;;5049954;28;20070;-54
2021/09/20 10:34:36;;;;;;;4.28;1.42;;;;;;;;;;5047944;28;20525;-54
2021/09/20 10:37:07;;;;;;;3.55;1.10;;;;;;;;;;5050718;28;20045;-55
2021/09/20 10:39:51;;;;;;;3.63;1.40;;;;;;;;;;5049583;28;20050;-56
2021/09/20 10:42:35;;;;;;;3.72;1.40;;;;;;;;;;5041710;28;20056;-56
2021/09/20 10:45:04;;;;;;;6.63;1.15;;;;;;;;;;5034157;28;20065;-57
2021/09/20 10:47:41;;;;;;;12.68;1.45;;;;;;;;;;5033456;28;20704;-56
2021/09/20 10:50:07;;;;;;;3.90;1.38;;;;;;;;;;5013977;28;20048;-56
2021/09/20 10:52:33;;;;;;;9.07;1.42;;;;;;;;;;5016647;28;20072;-56
2021/09/20 10:55:04;;;;;;;3.55;1.38;;;;;;;;;;5032660;28;20136;-56
2021/09/20 10:57:30;;;;;;;4.72;1.35;;;;;;;;;;5030754;28;20095;-57
2021/09/20 11:00:14;;;;;;;3.90;1.10;;;;;;;;;;5033119;28;20048;-56
2021/09/20 11:02:40;;;;;;;5.53;1.50;;;;;;;;;;5031904;28;20242;-56
2021/09/20 11:05:06;;;;;;;4.25;1.40;;;;;;;;;;5033288;28;20045;-53
2021/09/20 11:07:46;;;;;;;2.90;1.13;;;;;;;;;;5032910;28;20036;-55
2021/09/20 11:10:12;;;;;;;6.78;1.25;;;;;;;;;;5030438;28;20073;-56
2021/09/20 11:12:58;;;;;;;5.70;1.30;;;;;;;;;;5032155;28;20056;-57
2021/09/20 11:15:24;;;;;;;3.13;1.23;;;;;;;;;;5033723;28;20079;-57
2021/09/20 11:17:51;;;;;;;5.78;1.30;;;;;;;;;;5033328;28;20037;-56
2021/09/20 11:20:19;;;;;;;12.00;1.67;;;;;;;;;;5034917;28;20044;-56
2021/09/20 11:22:45;;;;;;;3.80;1.40;;;;;;;;;;5033914;28;20048;-56
2021/09/20 11:25:13;;;;;;;7.00;1.50;;;;;;;;;;5032075;28;20042;-57
2021/09/20 11:27:46;;;;;;;3.60;1.40;;;;;;;;;;5030527;28;21984;-55
2021/09/20 11:30:15;;;;;;;3.78;1.20;;;;;;;;;;5034609;28;20055;-56
2021/09/20 11:32:52;;;;;;;3.75;1.27;;;;;;;;;;5030822;28;20490;-57
2021/09/20 11:35:18;;;;;;;10.18;1.65;;;;;;;;;;5031341;28;20079;-56
2021/09/20 11:37:45;;;;;;;4.70;1.45;;;;;;;;;;5031797;28;20394;-54
2021/09/20 11:40:17;;;;;;;5.07;1.58;;;;;;;;;;5032522;28;20068;-55
2021/09/20 11:42:45;;;;;;;5.95;1.42;;;;;;;;;;5032198;28;20470;-56
2021/09/20 11:45:19;;;;;;;6.18;1.33;;;;;;;;;;5031190;28;20033;-56
2021/09/20 11:47:46;;;;;;;3.80;1.40;;;;;;;;;;5031149;28;20615;-55
2021/09/20 11:50:14;;;;;;;3.90;1.20;;;;;;;;;;5032557;28;20513;-56
2021/09/20 11:52:41;;;;;;;4.65;1.45;;;;;;;;;;5031262;28;20169;-56
2021/09/20 11:55:11;;;;;;;8.73;1.55;;;;;;;;;;5033768;28;20029;-55
2021/09/20 11:57:40;;;;;;;3.83;1.35;;;;;;;;;;5032921;28;20117;-56
2021/09/20 12:00:08;;;;;;;4.78;1.45;;;;;;;;;;5032743;28;20094;-56
2021/09/20 12:02:44;;;;;;;8.02;1.90;;;;;;;;;;5014061;28;20033;-56
2021/09/20 12:05:11;;;;;;;12.32;3.85;;;;;;;;;;5013486;28;20040;-55
2021/09/20 12:07:44;;;;;;;6.45;2.90;;;;;;;;;;5029430;28;20101;-53
2021/09/20 12:10:10;;;;;;;7.05;3.65;;;;;;;;;;5030555;28;20480;-57
2021/09/20 12:12:36;;;;;;;7.38;3.10;;;;;;;;;;5029626;28;20056;-56
2021/09/20 12:15:05;;;;;;;16.20;5.25;;;;;;;;;;5032169;28;20055;-56
2021/09/20 12:17:49;;;;;;;7.20;2.75;;;;;;;;;;5032452;28;20520;-56
2021/09/20 12:20:16;;;;;;;5.05;2.20;;;;;;;;;;5031232;28;20051;-56
2021/09/20 12:22:43;;;;;;;12.32;2.10;;;;;;;;;;5030429;28;20036;-56
2021/09/20 12:25:18;;;;;;;8.85;1.70;;;;;;;;;;5031199;28;20049;-56
2021/09/20 12:27:45;;;;;;;6.40;1.52;;;;;;;;;;5030167;28;20037;-56
2021/09/20 12:30:18;;;;;;;8.93;1.90;;;;;;;;;;5030485;28;20045;-56
2021/09/20 12:32:44;;;;;;;5.45;1.83;;;;;;;;;;5030885;28;20041;-55
2021/09/20 12:35:10;;;;;;;6.30;1.92;;;;;;;;;;5030756;28;20059;-56
2021/09/20 12:37:36;;;;;;;4.97;1.73;;;;;;;;;;5029193;28;20049;-55
2021/09/20 12:40:18;;;;;;;9.30;3.08;;;;;;;;;;5032067;28;20041;-54
2021/09/20 12:43:04;;;;;;;4.82;1.45;;;;;;;;;;5019087;28;20419;-56
2021/09/20 12:45:35;;;;;;;8.85;2.70;;;;;;;;;;5030799;28;20460;-54
2021/09/20 12:48:01;;;;;;;8.52;1.48;;;;;;;;;;5030740;28;20140;-55
2021/09/20 12:50:36;;;;;;;5.28;1.35;;;;;;;;;;5029206;28;20147;-53
2021/09/20 12:53:02;;;;;;;3.78;1.60;;;;;;;;;;5032403;28;20048;-55
2021/09/20 12:55:37;;;;;;;5.22;1.77;;;;;;;;;;5029036;28;20037;-56
2021/09/20 12:58:03;;;;;;;4.43;1.25;;;;;;;;;;5030496;28;20529;-56
2021/09/20 13:00:31;;;;;;;4.05;1.27;;;;;;;;;;5029526;28;20049;-54
2021/09/20 13:03:12;;;;;;;3.10;1.13;;;;;;;;;;5029242;28;20041;-54
2021/09/20 13:05:56;;;;;;;5.22;1.55;;;;;;;;;;5028852;28;20048;-55
2021/09/20 13:08:22;;;;;;;12.38;1.73;;;;;;;;;;5029578;28;20053;-56
2021/09/20 13:10:48;;;;;;;3.67;1.20;;;;;;;;;;5029280;28;20048;-55
2021/09/20 13:13:33;;;;;;;5.20;2.22;;;;;;;;;;5030663;28;20040;-56
2021/09/20 13:15:59;;;;;;;4.55;1.45;;;;;;;;;;5029854;28;20080;-56
2021/09/20 13:18:25;;;;;;;10.60;1.80;;;;;;;;;;5012413;28;20056;-55
2021/09/20 13:20:53;;;;;;;10.70;1.83;;;;;;;;;;5029603;28;20041;-55
2021/09/20 13:23:30;;;;;;;12.82;2.05;;;;;;;;;;5012098;28;20043;-55
2021/09/20 13:25:56;;;;;;;6.07;1.45;;;;;;;;;;5029131;28;20041;-55
2021/09/20 13:28:33;;;;;;;5.55;1.60;;;;;;;;;;5029881;28;21110;-54
2021/09/20 13:31:00;;;;;;;5.25;1.73;;;;;;;;;;5015291;28;20643;-53
2021/09/20 13:33:27;;;;;;;8.98;1.67;;;;;;;;;;5028989;28;20037;-56
2021/09/20 13:35:57;;;;;;;6.38;1.80;;;;;;;;;;5028789;28;20043;-55
2021/09/20 13:38:26;;;;;;;14.38;1.60;;;;;;;;;;5030183;28;20048;-55
2021/09/20 13:40:52;;;;;;;11.35;2.00;;;;;;;;;;5030954;28;20489;-56
2021/09/20 13:43:19;;;;;;;12.73;2.20;;;;;;;;;;5044219;28;20049;-55
2021/09/20 13:45:45;;;;;;;7.13;2.00;;;;;;;;;;5047444;28;20029;-55
2021/09/20 13:48:12;;;;;;;12.25;2.25;;;;;;;;;;5032450;28;20152;-52
2021/09/20 13:50:39;;;;;;;6.70;2.40;;;;;;;;;;5050851;28;20052;-56
2021/09/20 13:53:05;;;;;;;11.55;2.40;;;;;;;;;;5050350;28;20047;-56
2021/09/20 13:55:31;;;;;;;16.08;4.47;;;;;;;;;;5049817;28;20033;-55
2021/09/20 13:58:00;;;;;;;9.55;2.80;;;;;;;;;;5052746;28;20099;-56
2021/09/20 14:00:26;;;;;;;11.27;2.10;;;;;;;;;;5048991;28;22038;-54
2021/09/20 14:02:52;;;;;;;5.38;1.75;;;;;;;;;;5050359;28;20040;-56
2021/09/20 14:05:18;;;;;;;12.18;2.17;;;;;;;;;;5049864;28;20050;-55
2021/09/20 14:07:44;;;;;;;14.50;2.10;;;;;;;;;;5052501;28;20036;-55
2021/09/20 14:10:12;;;;;;;5.30;1.85;;;;;;;;;;5051748;28;20167;-54
2021/09/20 14:12:38;;;;;;;6.53;2.00;;;;;;;;;;5049854;28;20065;-55
2021/09/20 14:15:05;;;;;;;8.00;1.67;;;;;;;;;;5032484;28;20041;-54
2021/09/20 14:17:31;;;;;;;4.50;1.80;;;;;;;;;;5053039;28;20063;-56
2021/09/20 14:19:56;;;;;;;5.40;1.77;;;;;;;;;;5051271;28;20044;-54
2021/09/20 14:22:25;;;;;;;4.18;1.70;;;;;;;;;;5046334;28;20117;-56
2021/09/20 14:24:51;;;;;;;5.18;1.60;;;;;;;;;;5052948;28;20040;-55
2021/09/20 14:27:18;;;;;;;5.25;1.73;;;;;;;;;;5050982;28;20039;-55
2021/09/20 14:29:45;;;;;;;5.32;1.48;;;;;;;;;;5050453;28;20041;-56
2021/09/20 14:32:11;;;;;;;5.90;1.80;;;;;;;;;;5050574;28;20160;-56
2021/09/20 14:34:37;;;;;;;4.22;1.80;;;;;;;;;;5049687;28;20067;-56
2021/09/20 14:37:04;;;;;;;3.53;1.30;;;;;;;;;;5050224;28;20557;-54
2021/09/20 14:39:30;;;;;;;6.28;1.70;;;;;;;;;;5050404;28;20571;-56
2021/09/20 14:41:57;;;;;;;11.20;1.70;;;;;;;;;;5032114;28;20813;-56
2021/09/20 14:44:23;;;;;;;5.65;1.88;;;;;;;;;;5051788;28;20040;-54